Terminal Aerodrome Forecast
Issued by NWS

Home | Current Version | Previous Version | Text Only | Print | Product List | Glossary On
Versions: 1 2 3 4 5 6 7 8 9 10 11 12 13
000
FTAK31 PAJN 241700
TAFAPG
TAF
PAPG 241733Z 2418/2518 VRB03KT P6SM -SHRA SCT025 OVC045
     FM242200 08006KT P6SM VCSH BKN035 OVC050
     FM250600 VRB03KT P6SM BCFG FEW003 BKN050
      AMD LTD TO CLD VIS AND WIND 2506/2515=

USA.gov is the U.S. government's official web portal to all federal, state and local government web resources and services.